createdAt,value
2022-09-23T00:00:28.132Z,7.61
2022-09-23T00:01:28.137Z,7.59
2022-09-23T00:02:28.164Z,7.58
2022-09-23T00:03:28.103Z,7.57
2022-09-23T00:04:28.129Z,7.56
2022-09-23T00:05:28.133Z,7.56
2022-09-23T00:06:28.077Z,7.55
2022-09-23T00:07:28.105Z,7.55
2022-09-23T00:08:28.074Z,7.54
2022-09-23T00:09:28.058Z,7.53
2022-09-23T00:10:28.025Z,7.53
2022-09-23T00:11:28.024Z,7.53
2022-09-23T00:12:28.010Z,7.53
2022-09-23T00:13:28.022Z,7.53
2022-09-23T00:14:27.985Z,7.53
2022-09-23T00:15:27.985Z,7.53
2022-09-23T00:16:28.011Z,7.52
2022-09-23T00:17:27.957Z,7.52
2022-09-23T00:18:27.968Z,7.51
2022-09-23T00:19:27.915Z,7.51
2022-09-23T00:20:27.915Z,7.51
2022-09-23T00:21:27.895Z,7.50
2022-09-23T00:22:27.874Z,7.50
2022-09-23T00:23:27.881Z,7.50
2022-09-23T00:24:27.861Z,7.49
2022-09-23T00:25:27.881Z,7.49
2022-09-23T00:26:27.842Z,7.48
2022-09-23T00:27:27.835Z,7.47
2022-09-23T00:28:27.853Z,7.46
2022-09-23T00:29:27.801Z,7.45
2022-09-23T00:30:27.855Z,7.44
2022-09-23T00:31:27.786Z,7.43
2022-09-23T00:32:27.756Z,7.42
2022-09-23T00:33:27.753Z,7.42
2022-09-23T00:34:27.761Z,7.41
2022-09-23T00:35:27.733Z,7.40
2022-09-23T00:36:27.729Z,7.39
2022-09-23T00:37:27.713Z,7.38
2022-09-23T00:38:27.699Z,7.37
2022-09-23T00:39:27.704Z,7.36
2022-09-23T00:40:27.735Z,7.35
2022-09-23T00:41:27.666Z,7.34
2022-09-23T00:42:27.669Z,7.33
2022-09-23T00:43:27.649Z,7.32
2022-09-23T00:44:27.644Z,7.31
2022-09-23T00:45:27.617Z,7.30
2022-09-23T00:46:27.680Z,7.29
2022-09-23T00:47:27.595Z,7.28
2022-09-23T00:48:27.616Z,7.27
2022-09-23T00:49:27.618Z,7.26
2022-09-23T00:50:27.562Z,7.26
2022-09-23T00:51:27.553Z,7.26
2022-09-23T00:52:27.546Z,7.25
2022-09-23T00:53:27.538Z,7.25
2022-09-23T00:54:27.535Z,7.24
2022-09-23T00:55:27.512Z,7.23
2022-09-23T00:56:27.511Z,7.22
2022-09-23T00:57:27.487Z,7.22
2022-09-23T00:58:27.481Z,7.21
2022-09-23T00:59:27.486Z,7.20
2022-09-23T01:00:27.448Z,7.19
2022-09-23T01:01:27.478Z,7.19
2022-09-23T01:02:27.501Z,7.18
2022-09-23T01:03:27.416Z,7.18
2022-09-23T01:04:27.409Z,7.18
2022-09-23T01:05:27.428Z,7.19
2022-09-23T01:06:27.383Z,7.19
2022-09-23T01:07:27.365Z,7.20
2022-09-23T01:08:27.353Z,7.20
2022-09-23T01:09:27.352Z,7.21
2022-09-23T01:10:27.337Z,7.21
2022-09-23T01:11:27.345Z,7.22
2022-09-23T01:12:27.315Z,7.22
2022-09-23T01:13:27.306Z,7.23
2022-09-23T01:14:27.283Z,7.24
2022-09-23T01:15:27.276Z,7.25
2022-09-23T01:16:27.345Z,7.26
2022-09-23T01:17:27.256Z,7.26
2022-09-23T01:18:27.248Z,7.27
2022-09-23T01:19:27.238Z,7.28
2022-09-23T01:20:27.227Z,7.29
2022-09-23T01:21:27.229Z,7.30
2022-09-23T01:22:27.231Z,7.31
2022-09-23T01:23:27.186Z,7.32
2022-09-23T01:24:27.195Z,7.33
2022-09-23T01:25:27.166Z,7.35
2022-09-23T01:26:27.167Z,7.36
2022-09-23T01:27:27.157Z,7.36
2022-09-23T01:28:27.125Z,7.37
2022-09-23T01:29:27.132Z,7.37
2022-09-23T01:30:27.153Z,7.38
2022-09-23T01:31:27.108Z,7.38
2022-09-23T01:32:27.081Z,7.39
2022-09-23T01:33:27.070Z,7.40
2022-09-23T01:34:27.057Z,7.40
2022-09-23T01:35:27.056Z,7.41
2022-09-23T01:36:27.047Z,7.41
2022-09-23T01:37:27.030Z,7.42
2022-09-23T01:38:27.017Z,7.42
2022-09-23T01:39:26.999Z,7.43
2022-09-23T01:40:27.011Z,7.43
2022-09-23T01:41:26.998Z,7.43
2022-09-23T01:42:26.968Z,7.44
2022-09-23T01:43:26.957Z,7.44
2022-09-23T01:44:26.945Z,7.44
2022-09-23T01:45:26.939Z,7.44
2022-09-23T01:46:26.931Z,7.44
2022-09-23T01:47:26.923Z,7.44
2022-09-23T01:48:26.952Z,7.44
2022-09-23T01:49:26.896Z,7.44
2022-09-23T01:50:26.876Z,7.44
2022-09-23T01:51:26.878Z,7.45
2022-09-23T01:52:26.875Z,7.45
2022-09-23T01:53:26.851Z,7.45
2022-09-23T01:54:26.839Z,7.45
2022-09-23T01:55:26.851Z,7.45
2022-09-23T01:56:26.809Z,7.46
2022-09-23T01:57:26.797Z,7.46
2022-09-23T01:58:26.809Z,7.47
2022-09-23T01:59:26.787Z,7.47
2022-09-23T02:00:26.764Z,7.47
2022-09-23T02:01:26.780Z,7.48
2022-09-23T02:02:26.841Z,7.48
2022-09-23T02:03:26.750Z,7.47
2022-09-23T02:04:26.718Z,7.47
2022-09-23T02:05:26.710Z,7.47
2022-09-23T02:06:26.699Z,7.47
2022-09-23T02:07:26.678Z,7.48
2022-09-23T02:08:26.684Z,7.48
2022-09-23T02:09:26.654Z,7.47
2022-09-23T02:10:26.641Z,7.47
2022-09-23T02:11:26.659Z,7.47
2022-09-23T02:12:26.626Z,7.46
2022-09-23T02:13:26.646Z,7.46
2022-09-23T02:14:26.595Z,7.46
2022-09-23T02:15:26.591Z,7.46
2022-09-23T02:16:26.642Z,7.46
2022-09-23T02:17:26.585Z,7.46
2022-09-23T02:18:26.556Z,7.46
2022-09-23T02:19:26.561Z,7.46
2022-09-23T02:20:26.544Z,7.46
2022-09-23T02:21:26.528Z,7.47
2022-09-23T02:22:26.508Z,7.47
2022-09-23T02:23:26.506Z,7.46
2022-09-23T02:24:26.521Z,7.46
2022-09-23T02:25:26.479Z,7.46
2022-09-23T02:26:26.456Z,7.45
2022-09-23T02:27:26.459Z,7.43
2022-09-23T02:28:26.453Z,7.42
2022-09-23T02:29:26.450Z,7.41
2022-09-23T02:30:26.421Z,7.39
2022-09-23T02:31:26.435Z,7.38
2022-09-23T02:32:26.398Z,7.37
2022-09-23T02:33:26.390Z,7.36
2022-09-23T02:34:26.392Z,7.35
2022-09-23T02:35:26.359Z,7.34
2022-09-23T02:36:26.361Z,7.34
2022-09-23T02:37:26.344Z,7.33
2022-09-23T02:38:26.345Z,7.32
2022-09-23T02:39:26.310Z,7.31
2022-09-23T02:40:26.428Z,7.31
2022-09-23T02:41:26.283Z,7.31
2022-09-23T02:42:26.290Z,7.31
2022-09-23T02:43:26.281Z,7.30
2022-09-23T02:44:26.272Z,7.30
2022-09-23T02:45:26.263Z,7.29
2022-09-23T02:46:26.257Z,7.28
2022-09-23T02:47:26.220Z,7.27
2022-09-23T02:48:26.221Z,7.25
2022-09-23T02:49:26.211Z,7.24
2022-09-23T02:50:26.210Z,7.24
2022-09-23T02:51:26.190Z,7.23
2022-09-23T02:52:26.166Z,7.23
2022-09-23T02:53:26.153Z,7.22
2022-09-23T02:54:26.161Z,7.22
2022-09-23T02:55:26.149Z,7.21
2022-09-23T02:56:26.128Z,7.21
2022-09-23T02:57:26.125Z,7.21
2022-09-23T02:58:26.101Z,7.20
2022-09-23T02:59:26.081Z,7.20
2022-09-23T03:00:26.095Z,7.20
2022-09-23T03:01:26.089Z,7.20
2022-09-23T03:02:26.093Z,7.20
2022-09-23T03:03:26.042Z,7.20
2022-09-23T03:04:26.041Z,7.19
2022-09-23T03:05:26.043Z,7.19
2022-09-23T03:06:26.029Z,7.18
2022-09-23T03:07:25.995Z,7.17
2022-09-23T03:08:25.989Z,7.16
2022-09-23T03:09:26.010Z,7.16
2022-09-23T03:10:25.966Z,7.15
2022-09-23T03:11:25.971Z,7.15
2022-09-23T03:12:25.947Z,7.15
2022-09-23T03:13:29.224Z,7.15
2022-09-23T03:14:25.946Z,7.14
2022-09-23T03:15:25.902Z,7.13
2022-09-23T03:16:25.934Z,7.12
2022-09-23T03:17:25.889Z,7.12
2022-09-23T03:18:25.874Z,7.12
2022-09-23T03:19:25.855Z,7.11
2022-09-23T03:20:25.854Z,7.10
2022-09-23T03:21:25.832Z,7.10
2022-09-23T03:22:25.848Z,7.10
2022-09-23T03:23:25.817Z,7.10
2022-09-23T03:24:25.810Z,7.10
2022-09-23T03:25:25.802Z,7.11
2022-09-23T03:26:25.779Z,7.11
2022-09-23T03:27:25.796Z,7.11
2022-09-23T03:28:25.763Z,7.10
2022-09-23T03:29:25.745Z,7.10
2022-09-23T03:30:25.740Z,7.09
2022-09-23T03:31:25.795Z,7.07
2022-09-23T03:32:25.724Z,7.06
2022-09-23T03:33:28.544Z,7.05
2022-09-23T03:34:25.693Z,7.04
2022-09-23T03:35:25.681Z,7.02
2022-09-23T03:36:25.668Z,7.02
2022-09-23T03:37:25.642Z,7.01
2022-09-23T03:38:25.656Z,7.00
2022-09-23T03:39:25.634Z,7.00
2022-09-23T03:40:25.703Z,6.99
2022-09-23T03:41:25.604Z,6.99
2022-09-23T03:42:25.609Z,6.99
2022-09-23T03:43:25.639Z,6.98
2022-09-23T03:44:25.583Z,6.98
2022-09-23T03:45:25.593Z,6.97
2022-09-23T03:46:25.552Z,6.96
2022-09-23T03:47:25.542Z,6.96
2022-09-23T03:48:25.547Z,6.95
2022-09-23T03:49:25.526Z,6.94
2022-09-23T03:50:25.523Z,6.93
2022-09-23T03:51:25.508Z,6.93
2022-09-23T03:52:25.501Z,6.93
2022-09-23T03:53:25.503Z,6.92
2022-09-23T03:54:25.453Z,6.92
2022-09-23T03:55:25.441Z,6.93
2022-09-23T03:56:25.434Z,6.93
2022-09-23T03:57:25.434Z,6.93
2022-09-23T03:58:25.430Z,6.94
2022-09-23T03:59:25.401Z,6.94
2022-09-23T04:00:25.399Z,6.94
2022-09-23T04:01:25.508Z,6.93
2022-09-23T04:02:25.430Z,6.93
2022-09-23T04:03:25.382Z,6.93
2022-09-23T04:04:25.350Z,6.93
2022-09-23T04:05:25.324Z,6.93
2022-09-23T04:06:25.314Z,6.93
2022-09-23T04:07:25.307Z,6.93
2022-09-23T04:08:25.307Z,6.93
2022-09-23T04:09:25.295Z,6.93
2022-09-23T04:10:25.288Z,6.93
2022-09-23T04:11:25.260Z,6.94
2022-09-23T04:12:25.288Z,6.94
2022-09-23T04:13:25.280Z,6.94
2022-09-23T04:14:25.269Z,6.94
2022-09-23T04:15:25.252Z,6.94
2022-09-23T04:16:25.315Z,6.94
2022-09-23T04:17:25.277Z,6.94
2022-09-23T04:18:25.191Z,6.95
2022-09-23T04:19:25.163Z,6.95
2022-09-23T04:20:25.182Z,6.95
2022-09-23T04:21:25.154Z,6.95
2022-09-23T04:22:25.146Z,6.95
2022-09-23T04:23:25.135Z,6.95
2022-09-23T04:24:25.111Z,6.95
2022-09-23T04:25:25.123Z,6.95
2022-09-23T04:26:25.096Z,6.95
2022-09-23T04:27:25.091Z,6.95
2022-09-23T04:28:25.074Z,6.96
2022-09-23T04:29:25.057Z,6.96
2022-09-23T04:30:25.068Z,6.97
2022-09-23T04:31:25.090Z,6.97
2022-09-23T04:32:25.042Z,6.98
2022-09-23T04:33:25.005Z,6.98
2022-09-23T04:34:25.017Z,6.98
2022-09-23T04:35:24.975Z,6.98
2022-09-23T04:36:24.987Z,6.97
2022-09-23T04:37:24.978Z,6.97
2022-09-23T04:38:24.956Z,6.96
2022-09-23T04:39:24.938Z,6.96
2022-09-23T04:40:24.967Z,6.95
2022-09-23T04:41:24.908Z,6.94
2022-09-23T04:42:24.913Z,6.94
2022-09-23T04:43:24.893Z,6.93
2022-09-23T04:44:24.884Z,6.92
2022-09-23T04:45:24.888Z,6.91
2022-09-23T04:46:24.950Z,6.90
2022-09-23T04:47:24.861Z,6.88
2022-09-23T04:48:24.875Z,6.87
2022-09-23T04:49:24.817Z,6.85
2022-09-23T04:50:24.841Z,6.84
2022-09-23T04:51:24.805Z,6.83
2022-09-23T04:52:24.785Z,6.82
2022-09-23T04:53:24.786Z,6.81
2022-09-23T04:54:24.777Z,6.81
2022-09-23T04:55:24.770Z,6.80
2022-09-23T04:56:24.747Z,6.79
2022-09-23T04:57:24.747Z,6.79
2022-09-23T04:58:24.728Z,6.78
2022-09-23T04:59:24.707Z,6.78
2022-09-23T05:00:24.748Z,6.78
2022-09-23T05:01:24.882Z,6.78
2022-09-23T05:02:24.761Z,6.78
2022-09-23T05:03:24.667Z,6.78
2022-09-23T05:04:24.657Z,6.78
2022-09-23T05:05:24.661Z,6.78
2022-09-23T05:06:24.651Z,6.79
2022-09-23T05:07:24.621Z,6.79
2022-09-23T05:08:24.625Z,6.79
2022-09-23T05:09:24.598Z,6.78
2022-09-23T05:10:24.613Z,6.78
2022-09-23T05:11:24.581Z,6.77
2022-09-23T05:12:24.588Z,6.77
2022-09-23T05:13:24.561Z,6.77
2022-09-23T05:14:24.542Z,6.76
2022-09-23T05:15:24.534Z,6.76
2022-09-23T05:16:24.638Z,6.75
2022-09-23T05:17:24.514Z,6.75
2022-09-23T05:18:24.499Z,6.74
2022-09-23T05:19:24.502Z,6.74
2022-09-23T05:20:24.481Z,6.74
2022-09-23T05:21:24.481Z,6.73
2022-09-23T05:22:24.461Z,6.73
2022-09-23T05:23:24.447Z,6.72
2022-09-23T05:24:24.418Z,6.72
2022-09-23T05:25:24.429Z,6.72
2022-09-23T05:26:24.427Z,6.71
2022-09-23T05:27:24.395Z,6.71
2022-09-23T05:28:24.382Z,6.72
2022-09-23T05:29:24.373Z,6.72
2022-09-23T05:30:24.363Z,6.73
2022-09-23T05:31:24.381Z,6.74
2022-09-23T05:32:24.350Z,6.75
2022-09-23T05:33:24.331Z,6.76
2022-09-23T05:34:24.321Z,6.77
2022-09-23T05:35:24.312Z,6.79
2022-09-23T05:36:24.309Z,6.81
2022-09-23T05:37:24.285Z,6.83
2022-09-23T05:38:24.271Z,6.85
2022-09-23T05:39:24.261Z,6.86
2022-09-23T05:40:24.280Z,6.88
2022-09-23T05:41:24.242Z,6.89
2022-09-23T05:42:24.248Z,6.90
2022-09-23T05:43:24.214Z,6.91
2022-09-23T05:44:24.202Z,6.92
2022-09-23T05:45:26.260Z,6.94
2022-09-23T05:46:24.276Z,6.95
2022-09-23T05:47:24.200Z,6.96
2022-09-23T05:48:24.152Z,6.97
2022-09-23T05:49:37.732Z,6.97
2022-09-23T05:50:25.158Z,6.98
2022-09-23T05:51:28.774Z,7.00
2022-09-23T05:52:25.141Z,7.01
2022-09-23T05:53:24.100Z,7.03
2022-09-23T05:54:24.092Z,7.04
2022-09-23T05:55:24.090Z,7.05
2022-09-23T05:56:24.072Z,7.07
2022-09-23T05:57:24.078Z,7.10
2022-09-23T05:58:24.084Z,7.12
2022-09-23T05:59:24.032Z,7.14
2022-09-23T06:00:24.034Z,7.16
2022-09-23T06:01:24.027Z,7.17
2022-09-23T06:02:24.137Z,7.19
2022-09-23T06:03:24.037Z,7.21
2022-09-23T06:04:24.018Z,7.22
2022-09-23T06:05:23.974Z,7.23
2022-09-23T06:06:23.962Z,7.25
2022-09-23T06:07:23.960Z,7.27
2022-09-23T06:08:23.944Z,7.28
2022-09-23T06:09:23.923Z,7.30
2022-09-23T06:10:23.912Z,7.32
2022-09-23T06:11:23.902Z,7.33
2022-09-23T06:12:23.902Z,7.35
2022-09-23T06:13:23.891Z,7.37
2022-09-23T06:14:23.880Z,7.39
2022-09-23T06:15:23.843Z,7.41
2022-09-23T06:16:23.884Z,7.43
2022-09-23T06:17:23.844Z,7.45
2022-09-23T06:18:23.827Z,7.47
2022-09-23T06:19:23.807Z,7.49
2022-09-23T06:20:23.796Z,7.51
2022-09-23T06:21:23.780Z,7.53
2022-09-23T06:22:23.773Z,7.55
2022-09-23T06:23:26.400Z,7.57
2022-09-23T06:24:28.620Z,7.59
2022-09-23T06:25:24.738Z,7.61
2022-09-23T06:26:23.743Z,7.64
2022-09-23T06:27:23.722Z,7.66
2022-09-23T06:28:23.712Z,7.68
2022-09-23T06:29:23.697Z,7.70
2022-09-23T06:30:23.703Z,7.72
2022-09-23T06:31:23.724Z,7.74
2022-09-23T06:32:23.664Z,7.76
2022-09-23T06:33:34.719Z,7.79
2022-09-23T06:34:24.635Z,7.82
2022-09-23T06:35:27.419Z,7.85
2022-09-23T06:36:39.136Z,7.88
2022-09-23T06:37:24.594Z,7.91
2022-09-23T06:38:23.588Z,7.94
2022-09-23T06:39:23.589Z,7.98
2022-09-23T06:40:23.691Z,8.02
2022-09-23T06:41:23.552Z,8.06
2022-09-23T06:42:23.545Z,8.11
2022-09-23T06:43:23.559Z,8.16
2022-09-23T06:44:23.594Z,8.20
2022-09-23T06:45:23.520Z,8.26
2022-09-23T06:46:23.575Z,8.33
2022-09-23T06:47:23.513Z,8.41
2022-09-23T06:48:23.484Z,8.51
2022-09-23T06:49:23.494Z,8.63
2022-09-23T06:50:23.473Z,8.77
2022-09-23T06:51:23.470Z,8.93
2022-09-23T06:52:23.427Z,9.11
2022-09-23T06:53:23.435Z,9.30
2022-09-23T06:54:23.432Z,9.49
2022-09-23T06:55:23.461Z,9.68
2022-09-23T06:56:23.399Z,9.86
2022-09-23T06:57:23.383Z,10.06
2022-09-23T06:58:23.369Z,10.26
2022-09-23T06:59:23.367Z,10.45
2022-09-23T07:00:23.336Z,10.63
2022-09-23T07:01:23.430Z,10.79
2022-09-23T07:02:23.420Z,10.93
2022-09-23T07:03:23.316Z,11.07
2022-09-23T07:04:26.119Z,11.23
2022-09-23T07:05:24.327Z,11.40
2022-09-23T07:06:23.282Z,11.54
2022-09-23T07:07:23.275Z,11.62
2022-09-23T07:08:23.263Z,11.65
2022-09-23T07:09:23.246Z,11.67
2022-09-23T07:10:23.234Z,11.66
2022-09-23T07:11:23.264Z,11.63
2022-09-23T07:12:23.196Z,11.59
2022-09-23T07:13:23.212Z,11.57
2022-09-23T07:14:23.176Z,11.54
2022-09-23T07:15:23.196Z,11.54
2022-09-23T07:16:23.274Z,11.55
2022-09-23T07:17:23.159Z,11.55
2022-09-23T07:18:23.154Z,11.57
2022-09-23T07:19:23.138Z,11.59
2022-09-23T07:20:23.118Z,11.60
2022-09-23T07:21:23.118Z,11.63
2022-09-23T07:22:23.100Z,11.66
2022-09-23T07:23:23.078Z,11.66
2022-09-23T07:24:23.062Z,11.65
2022-09-23T07:25:23.058Z,11.64
2022-09-23T07:26:23.087Z,11.63
2022-09-23T07:27:23.072Z,11.64
2022-09-23T07:28:23.044Z,11.65
2022-09-23T07:29:23.037Z,11.67
2022-09-23T07:30:25.415Z,11.73
2022-09-23T07:31:34.953Z,11.81
2022-09-23T07:32:24.069Z,11.88
2022-09-23T07:33:31.809Z,11.95
2022-09-23T07:34:23.962Z,12.01
2022-09-23T07:35:22.940Z,12.10
2022-09-23T07:36:22.954Z,12.22
2022-09-23T07:37:22.920Z,12.35
2022-09-23T07:38:22.901Z,12.44
2022-09-23T07:39:22.894Z,12.49
2022-09-23T07:40:22.942Z,12.51
2022-09-23T07:41:22.872Z,12.52
2022-09-23T07:42:22.877Z,12.53
2022-09-23T07:43:22.855Z,12.54
2022-09-23T07:44:22.851Z,12.58
2022-09-23T07:45:22.853Z,12.63
2022-09-23T07:46:22.892Z,12.72
2022-09-23T07:47:22.812Z,12.81
2022-09-23T07:48:22.831Z,12.88
2022-09-23T07:49:22.797Z,12.93
2022-09-23T07:50:22.993Z,12.95
2022-09-23T07:51:22.788Z,12.97
2022-09-23T07:52:22.792Z,12.98
2022-09-23T07:53:22.747Z,12.99
2022-09-23T07:54:22.746Z,13.03
2022-09-23T07:55:22.742Z,13.09
2022-09-23T07:56:22.701Z,13.14
2022-09-23T07:57:22.712Z,13.18
2022-09-23T07:58:22.690Z,13.22
2022-09-23T07:59:22.677Z,13.27
2022-09-23T08:00:22.851Z,13.34
2022-09-23T08:01:22.729Z,13.41
2022-09-23T08:02:22.762Z,13.45
2022-09-23T08:03:22.634Z,13.50
2022-09-23T08:04:22.614Z,13.53
2022-09-23T08:05:22.600Z,13.58
2022-09-23T08:06:22.614Z,13.62
2022-09-23T08:07:22.605Z,13.65
2022-09-23T08:08:22.596Z,13.68
2022-09-23T08:09:22.575Z,13.71
2022-09-23T08:10:22.693Z,13.77
2022-09-23T08:11:22.545Z,13.85
2022-09-23T08:12:22.563Z,13.93
2022-09-23T08:13:22.572Z,13.95
2022-09-23T08:14:22.512Z,13.97
2022-09-23T08:15:22.494Z,14.00
2022-09-23T08:16:22.558Z,14.04
2022-09-23T08:17:22.487Z,14.05
2022-09-23T08:18:22.489Z,14.04
2022-09-23T08:19:22.453Z,14.03
2022-09-23T08:20:22.486Z,14.05
2022-09-23T08:21:22.432Z,14.06
2022-09-23T08:22:22.416Z,14.07
2022-09-23T08:23:22.419Z,14.09
2022-09-23T08:24:22.397Z,14.11
2022-09-23T08:25:22.847Z,14.11
2022-09-23T08:26:22.663Z,14.11
2022-09-23T08:27:22.362Z,14.11
2022-09-23T08:28:22.376Z,14.11
2022-09-23T08:29:22.351Z,14.12
2022-09-23T08:30:22.336Z,14.18
2022-09-23T08:31:22.428Z,14.28
2022-09-23T08:32:22.302Z,14.34
2022-09-23T08:33:23.525Z,14.34
2022-09-23T08:34:22.308Z,14.30
2022-09-23T08:35:22.283Z,14.23
2022-09-23T08:36:22.274Z,14.16
2022-09-23T08:37:22.238Z,14.11
2022-09-23T08:38:22.223Z,14.09
2022-09-23T08:39:22.268Z,14.10
2022-09-23T08:40:22.337Z,14.11
2022-09-23T08:41:22.224Z,14.09
2022-09-23T08:42:22.212Z,14.06
2022-09-23T08:43:22.173Z,14.06
2022-09-23T08:44:22.169Z,14.05
2022-09-23T08:45:22.165Z,14.03
2022-09-23T08:46:22.180Z,14.02
2022-09-23T08:47:22.167Z,14.00
2022-09-23T08:48:22.111Z,13.99
2022-09-23T08:49:22.129Z,13.98
2022-09-23T08:50:22.113Z,13.96
2022-09-23T08:51:22.095Z,13.91
2022-09-23T08:52:22.070Z,13.88
2022-09-23T08:53:22.070Z,13.87
2022-09-23T08:54:22.053Z,13.87
2022-09-23T08:55:22.043Z,13.90
2022-09-23T08:56:22.033Z,13.94
2022-09-23T08:57:22.021Z,13.98
2022-09-23T08:58:26.213Z,14.01
2022-09-23T08:59:22.049Z,14.02
2022-09-23T09:00:22.077Z,14.01
2022-09-23T09:01:22.000Z,13.99
2022-09-23T09:02:22.028Z,13.98
2022-09-23T09:03:21.944Z,13.99
2022-09-23T09:04:21.932Z,13.99
2022-09-23T09:05:21.964Z,14.00
2022-09-23T09:06:21.904Z,14.01
2022-09-23T09:07:38.155Z,14.02
2022-09-23T09:08:22.889Z,14.04
2022-09-23T09:09:21.863Z,14.05
2022-09-23T09:10:21.864Z,14.06
2022-09-23T09:11:21.841Z,14.05
2022-09-23T09:12:21.851Z,14.02
2022-09-23T09:13:21.851Z,13.99
2022-09-23T09:14:21.817Z,13.95
2022-09-23T09:15:24.716Z,13.91
2022-09-23T09:16:36.627Z,13.91
2022-09-23T09:17:22.776Z,13.91
2022-09-23T09:18:21.769Z,13.91
2022-09-23T09:19:21.796Z,13.91
2022-09-23T09:20:21.759Z,13.91
2022-09-23T09:21:21.788Z,13.92
2022-09-23T09:22:21.740Z,13.91
2022-09-23T09:23:21.725Z,13.89
2022-09-23T09:24:21.704Z,13.87
2022-09-23T09:25:21.728Z,13.87
2022-09-23T09:26:21.712Z,13.88
2022-09-23T09:27:21.688Z,13.91
2022-09-23T09:28:21.683Z,13.93
2022-09-23T09:29:34.765Z,13.95
2022-09-23T09:30:22.673Z,13.97
2022-09-23T09:31:21.681Z,13.97
2022-09-23T09:32:21.619Z,13.95
2022-09-23T09:33:21.602Z,13.93
2022-09-23T09:34:21.577Z,13.92
2022-09-23T09:35:21.615Z,13.91
2022-09-23T09:36:21.587Z,13.89
2022-09-23T09:37:21.565Z,13.86
2022-09-23T09:38:21.543Z,13.83
2022-09-23T09:39:25.526Z,13.83
2022-09-23T09:40:21.565Z,13.84
2022-09-23T09:41:21.522Z,13.84
2022-09-23T09:42:21.498Z,13.84
2022-09-23T09:43:21.478Z,13.82
2022-09-23T09:44:21.459Z,13.80
2022-09-23T09:45:21.449Z,13.79
2022-09-23T09:46:21.480Z,13.79
2022-09-23T09:47:21.462Z,13.78
2022-09-23T09:48:21.421Z,13.78
2022-09-23T09:49:21.399Z,13.78
2022-09-23T09:50:21.391Z,13.79
2022-09-23T09:51:21.390Z,13.80
2022-09-23T09:52:21.397Z,13.81
2022-09-23T09:53:21.325Z,13.82
2022-09-23T09:54:21.325Z,13.83
2022-09-23T09:55:21.295Z,13.85
2022-09-23T09:56:21.279Z,13.89
2022-09-23T09:57:21.257Z,13.92
2022-09-23T09:58:21.278Z,13.96
2022-09-23T09:59:21.247Z,13.99
2022-09-23T10:00:21.230Z,14.03
2022-09-23T10:01:21.331Z,14.07
2022-09-23T10:02:21.208Z,14.11
2022-09-23T10:03:21.228Z,14.16
2022-09-23T10:04:21.233Z,14.20
2022-09-23T10:05:21.195Z,14.24
2022-09-23T10:06:21.160Z,14.26
2022-09-23T10:07:21.154Z,14.29
2022-09-23T10:08:21.139Z,14.32
2022-09-23T10:09:21.156Z,14.34
2022-09-23T10:10:32.243Z,14.37
2022-09-23T10:11:22.115Z,14.39
2022-09-23T10:12:21.103Z,14.42
2022-09-23T10:13:21.080Z,14.45
2022-09-23T10:14:21.087Z,14.46
2022-09-23T10:15:21.074Z,14.47
2022-09-23T10:16:21.095Z,14.48
2022-09-23T10:17:21.041Z,14.49
2022-09-23T10:18:21.035Z,14.49
2022-09-23T10:19:21.023Z,14.48
2022-09-23T10:20:20.989Z,14.49
2022-09-23T10:21:25.455Z,14.50
2022-09-23T10:22:21.982Z,14.50
2022-09-23T10:23:20.971Z,14.50
2022-09-23T10:24:20.969Z,14.50
2022-09-23T10:25:20.948Z,14.50
2022-09-23T10:26:20.935Z,14.51
2022-09-23T10:27:20.938Z,14.52
2022-09-23T10:28:20.906Z,14.52
2022-09-23T10:29:20.916Z,14.52
2022-09-23T10:30:20.907Z,14.52
2022-09-23T10:31:20.883Z,14.52
2022-09-23T10:32:20.857Z,14.52
2022-09-23T10:33:20.866Z,14.52
2022-09-23T10:34:20.835Z,14.53
2022-09-23T10:35:20.854Z,14.53
2022-09-23T10:36:20.832Z,14.54
2022-09-23T10:37:20.820Z,14.54
2022-09-23T10:38:20.800Z,14.53
2022-09-23T10:39:20.798Z,14.53
2022-09-23T10:40:20.902Z,14.54
2022-09-23T10:41:20.779Z,14.55
2022-09-23T10:42:20.761Z,14.56
2022-09-23T10:43:20.748Z,14.57
2022-09-23T10:44:20.756Z,14.57
2022-09-23T10:45:20.727Z,14.58
2022-09-23T10:46:20.798Z,14.60
2022-09-23T10:47:20.699Z,14.62
2022-09-23T10:48:20.687Z,14.65
2022-09-23T10:49:20.688Z,14.68
2022-09-23T10:50:20.661Z,14.70
2022-09-23T10:51:25.451Z,14.72
2022-09-23T10:52:21.663Z,14.73
2022-09-23T10:53:20.640Z,14.74
2022-09-23T10:54:20.618Z,14.75
2022-09-23T10:55:20.614Z,14.75
2022-09-23T10:56:20.621Z,14.75
2022-09-23T10:57:20.603Z,14.74
2022-09-23T10:58:20.604Z,14.74
2022-09-23T10:59:20.577Z,14.74
2022-09-23T11:00:20.554Z,14.75
2022-09-23T11:01:20.674Z,14.77
2022-09-23T11:02:20.536Z,14.80
2022-09-23T11:03:20.529Z,14.83
2022-09-23T11:04:20.858Z,14.85
2022-09-23T11:05:20.506Z,14.86
2022-09-23T11:06:20.497Z,14.87
2022-09-23T11:07:20.496Z,14.87
2022-09-23T11:08:20.478Z,14.87
2022-09-23T11:09:20.475Z,14.88
2022-09-23T11:10:35.343Z,14.88
2022-09-23T11:11:21.451Z,14.89
2022-09-23T11:12:20.430Z,14.90
2022-09-23T11:13:20.413Z,14.91
2022-09-23T11:14:20.455Z,14.93
2022-09-23T11:15:20.382Z,14.96
2022-09-23T11:16:20.554Z,14.97
2022-09-23T11:17:20.375Z,14.98
2022-09-23T11:18:20.376Z,15.00
2022-09-23T11:19:20.356Z,15.01
2022-09-23T11:20:20.350Z,15.03
2022-09-23T11:21:20.325Z,15.05
2022-09-23T11:22:20.306Z,15.07
2022-09-23T11:23:20.295Z,15.10
2022-09-23T11:24:20.306Z,15.14
2022-09-23T11:25:20.287Z,15.17
2022-09-23T11:26:20.268Z,15.21
2022-09-23T11:27:20.256Z,15.25
2022-09-23T11:28:20.248Z,15.28
2022-09-23T11:29:20.243Z,15.30
2022-09-23T11:30:20.257Z,15.31
2022-09-23T11:31:20.311Z,15.33
2022-09-23T11:32:20.198Z,15.34
2022-09-23T11:33:20.186Z,15.36
2022-09-23T11:34:20.272Z,15.38
2022-09-23T11:35:20.194Z,15.40
2022-09-23T11:36:20.172Z,15.42
2022-09-23T11:37:20.127Z,15.45
2022-09-23T11:38:20.124Z,15.48
2022-09-23T11:39:20.135Z,15.51
2022-09-23T11:40:20.191Z,15.55
2022-09-23T11:41:20.093Z,15.58
2022-09-23T11:42:20.084Z,15.60
2022-09-23T11:43:20.104Z,15.62
2022-09-23T11:44:20.098Z,15.64
2022-09-23T11:45:20.074Z,15.65
2022-09-23T11:46:20.097Z,15.67
2022-09-23T11:47:20.025Z,15.69
2022-09-23T11:48:20.017Z,15.71
2022-09-23T11:49:20.012Z,15.72
2022-09-23T11:50:19.993Z,15.74
2022-09-23T11:51:20.005Z,15.76
2022-09-23T11:52:19.970Z,15.78
2022-09-23T11:53:19.959Z,15.81
2022-09-23T11:54:20.856Z,15.83
2022-09-23T11:55:22.991Z,15.85
2022-09-23T11:56:32.371Z,15.87
2022-09-23T11:57:20.915Z,15.88
2022-09-23T11:58:25.642Z,15.88
2022-09-23T11:59:31.020Z,15.88
2022-09-23T12:00:20.884Z,15.88
2022-09-23T12:01:28.098Z,15.88
2022-09-23T12:02:22.951Z,15.88
2022-09-23T12:03:20.278Z,15.88
2022-09-23T12:04:21.305Z,15.89
2022-09-23T12:05:19.991Z,15.90
2022-09-23T12:06:19.823Z,15.90
2022-09-23T12:07:19.806Z,15.91
2022-09-23T12:08:19.792Z,15.94
2022-09-23T12:09:30.971Z,15.96
2022-09-23T12:10:20.790Z,15.99
2022-09-23T12:11:19.763Z,16.02
2022-09-23T12:12:22.876Z,16.06
2022-09-23T12:13:20.729Z,16.10
2022-09-23T12:14:19.718Z,16.14
2022-09-23T12:15:19.707Z,16.17
2022-09-23T12:16:19.760Z,16.20
2022-09-23T12:17:19.693Z,16.23
2022-09-23T12:18:23.163Z,16.25
2022-09-23T12:19:19.694Z,16.27
2022-09-23T12:20:19.701Z,16.28
2022-09-23T12:21:39.114Z,16.30
2022-09-23T12:22:20.647Z,16.32
2022-09-23T12:23:19.633Z,16.34
2022-09-23T12:24:19.628Z,16.35
2022-09-23T12:25:19.605Z,16.37
2022-09-23T12:26:19.626Z,16.38
2022-09-23T12:27:19.582Z,16.39
2022-09-23T12:28:19.576Z,16.40
2022-09-23T12:29:19.630Z,16.39
2022-09-23T12:30:19.596Z,16.38
2022-09-23T12:31:19.609Z,16.37
2022-09-23T12:32:19.550Z,16.36
2022-09-23T12:33:19.507Z,16.34
2022-09-23T12:34:19.522Z,16.33
2022-09-23T12:35:19.502Z,16.32
2022-09-23T12:36:19.510Z,16.31
2022-09-23T12:37:19.511Z,16.31
2022-09-23T12:38:19.467Z,16.31
2022-09-23T12:39:19.463Z,16.31
2022-09-23T12:40:19.510Z,16.31
2022-09-23T12:41:19.463Z,16.31
2022-09-23T12:42:19.547Z,16.31
2022-09-23T12:43:19.428Z,16.31
2022-09-23T12:44:19.398Z,16.31
2022-09-23T12:45:19.402Z,16.31
2022-09-23T12:46:19.402Z,16.32
2022-09-23T12:47:19.398Z,16.33
2022-09-23T12:48:19.365Z,16.35
2022-09-23T12:49:19.335Z,16.37
2022-09-23T12:50:23.730Z,16.39
2022-09-23T12:51:20.328Z,16.41
2022-09-23T12:52:19.356Z,16.43
2022-09-23T12:53:19.307Z,16.46
2022-09-23T12:54:19.307Z,16.49
2022-09-23T12:55:19.298Z,16.52
2022-09-23T12:56:19.334Z,16.55
2022-09-23T12:57:19.341Z,16.58
2022-09-23T12:58:19.258Z,16.61
2022-09-23T12:59:19.272Z,16.65
2022-09-23T13:00:19.244Z,16.68
2022-09-23T13:01:19.416Z,16.72
2022-09-23T13:02:19.366Z,16.75
2022-09-23T13:03:19.180Z,16.79
2022-09-23T13:04:19.189Z,16.83
2022-09-23T13:05:19.193Z,16.87
2022-09-23T13:06:19.157Z,16.91